Kezdőlap
METAR-TAF:

METAR-TAF

Repülőterek :

Madrid-Barajasi repülőtér

Madrid, Spanyolország

földrajzi szélesség: 40-27N, földrajzi hosszúság: 003-33W, magasság: 609 m

Jelenlegi meteorológiai megfigyelések

A jelentés 35 perccel ezelõtt készült, 00:00 UTC
Északkeleti szél 4 kt
Hőmérséklet 19°C
Páratartalom 52%
Légköri nyomás 1017 hPa
Látótávolság 10 km, vagy több
felhőtlen 1500 m magasságban, és nincs gomolyfelhõ

METAR: LEMD 270000Z 04004KT CAVOK 19/09 Q1017 NOSIG

Idő: 02:35 (00:35 UTC)

Előrejelzés

A jelentés 1 órával és 35 perccel ezelõtt készült, 23:00 UTC
Az előrejelzés 27-én 00 óra UTC és 28-én 06 óra UTC között érvényes
Északkeleti szél 6 kt
Látótávolság 10 km, vagy több
felhőtlen 1500 m magasságban, és nincs gomolyfelhõ

TAF: LEMD 262300Z 2700/2806 04006KT CAVOK TX31/2715Z TN13/2706Z

Meteorológiai megfigyelések és előrejelzések több, mint 4000 repülőtéren (METAR és TAF jelentéseket).

A térképen piros és sárga pontok jelzik az elérhető meteorológiai állomásokat.

Mozgassa az egeret a pont fölött, hogy megjelenjen az állomás neve.

Azután kattintson az időjárási megfigyelések és előrejelzések megtekintéséhez.

A térkép megváltoztatása: kattintson a fekete keresztel jelölt zöld gombra ráközelítéshez, a vonallal jelölt zöld gombra távolításhoz, vagy a zöld nyilakra a szomszédos térképek eléréséhez.


METAR-TAF: